Announcements: Do a full refresh of your brower to see the UV and solar gauges. Email Mr. Reynolds

Nearby METAR Reports

 

KMIC - Crystal, Minnesota, USA
Distance from station: N 7mi, 16km
Updated: Sun, 07/14/2024 4:53am CDT
Few Clouds
Few Clouds
 Wind from calm
Wind: Calm
Temperature: 64°F, 18°C
Dew Point: 64°F, 18°C
Humidity: 100%
Barometer: 29.89 inHg, 1012.2 hPa
Clouds: Few Clouds
Visibility: 8 miles, 13 km
Cloud details: Few Clouds 5500 ft
2024/07/14 09:53 KMIC 140953Z AUTO 00000KT 8SM FEW055 18/18 A2989 RMK AO2 SLP117 T01830178
KANE - Anoka-Blaine, Minnesota, USA
Distance from station: NE 16mi, 27km
Updated: Sun, 07/14/2024 5:35am CDT
Mostly cloudy
Mostly cloudy
 Wind from calm
Wind: Calm
Temperature: 66°F, 19°C
Dew Point: 66°F, 19°C
Humidity: 100%
Barometer: 29.91 inHg, 1012.9 hPa
Clouds: Mostly cloudy
Visibility: 10 miles, 16 km
Cloud details: Mostly cloudy 5500 ft
2024/07/14 10:35 KANE 141035Z AUTO 00000KT 10SM BKN055 19/19 A2991 RMK AO2
KFCM - Flying Cloud-Eden Prairie, Minnesota, USA
Distance from station: SW 17mi, 28km
Updated: Sun, 07/14/2024 4:53am CDT
Clear
Clear
 Wind from S
Wind: S 7 mph, 11 km/h
Temperature: 68°F, 20°C
Dew Point: 64°F, 18°C
Humidity: 88%
Barometer: 29.89 inHg, 1012.2 hPa
Clouds: Clear
Visibility: 10 miles, 16 km
2024/07/14 09:53 KFCM 140953Z AUTO 18006KT 10SM CLR 20/18 A2989 RMK AO2 SLP115 T02000183
 
KMSP - Minneapolis-St. Paul, Minnesota, USA
Distance from station: SE 16mi, 27km
Updated: Sun, 07/14/2024 4:53am CDT
Clear
Clear
 Wind from S
Wind: S 8 mph, 13 km/h
Temperature: 70°F, 21°C
Dew Point: 64°F, 18°C
Humidity: 83%
Barometer: 29.89 inHg, 1012.2 hPa
Clouds: Clear
Visibility: 10 miles, 16 km
2024/07/14 09:53 KMSP 140953Z 18007KT 10SM CLR 21/18 A2989 RMK AO2 SLP119 T02060178
KRST - Rochester, Minnesota, USA
Distance from station: SE 99mi, 159km
Updated: Sun, 07/14/2024 4:54am CDT
Few Clouds
Few Clouds
 Wind from ESE
Wind: ESE 10 mph, 17 km/h
Temperature: 66°F, 19°C
Dew Point: 64°F, 18°C
Humidity: 94%
Barometer: 29.95 inHg, 1014.2 hPa
Clouds: Few Clouds
Visibility: 10 miles, 16 km
Cloud details: Few Clouds 400 ft
2024/07/14 09:54 KRST 140954Z 11009KT 10SM FEW004 19/18 A2995 RMK AO2 RAE17 TSE0859 SLP133 P0000 T01890183
KSGS - Fleming/St Paul, Minnesota, USA
Distance from station: E 23mi, 37km
Updated: Sun, 07/14/2024 5:35am CDT
Clear
Clear
 Wind from S
Wind: S 3 mph, 6 km/h
Temperature: 68°F, 20°C
Dew Point: 64°F, 18°C
Humidity: 88%
Barometer: 29.90 inHg, 1012.5 hPa
Clouds: Clear
Visibility: 10 miles, 16 km
2024/07/14 10:35 KSGS 141035Z AUTO 18003KT 10SM CLR 20/18 A2990 RMK AO2 T01960184
 
KDLH - Duluth, Minnesota, USA
Distance from station: NNE 164mi, 265km
Updated: Sun, 07/14/2024 4:55am CDT
Few Clouds
Few Clouds
 Wind from N
Wind: N 6 mph, 9 km/h
Temperature: 68°F, 20°C
Dew Point: 64°F, 18°C
Humidity: 88%
Barometer: 29.84 inHg, 1010.5 hPa
Clouds: Few Clouds
Visibility: 10 miles, 16 km
Cloud details: Few Clouds 4500 ft
Few Clouds 12000 ft
2024/07/14 09:55 KDLH 140955Z 01005KT 10SM FEW045 FEW120 20/18 A2984 RMK AO2 SLP100 T02000178
KBRD - Brainard, Minnesota, USA
Distance from station: NNW 127mi, 25km
Updated: Sun, 07/14/2024 4:53am CDT
Clear
Clear
 Wind from calm
Wind: Calm
Temperature: 66°F, 19°C
Dew Point: 64°F, 18°C
Humidity: 94%
Barometer: 29.87 inHg, 1011.5 hPa
Clouds: Clear
Visibility: 7 miles, 11 km
2024/07/14 09:53 KBRD 140953Z AUTO 00000KT 7SM CLR 19/18 A2987 RMK AO2 SLP107 T01890178